Time;durP1;ratioP1;P1;durP2;ratioP2;P2;SDS_P1;SDS_P2;PMS_P1;PMS_P2;Temp;Humidity;BMP_temperature;BMP_pressure;BME280_temperature;BME280_humidity;BME280_pressure;Samples;Min_cycle;Max_cycle;Signal;HPM_P1;HPM_P2
2023/11/08 02:50:23;;;;;;;;;;;;;;;8.31;68.29;99945.53;1091058;46;1918;-82
2023/11/08 02:51:32;;;;;;;;;;;;;;;8.33;68.37;99946.22;1088562;47;1849;-85
2023/11/08 02:52:38;;;;;;;;;;;;;;;8.39;68.10;99946.53;1088903;54;1145;-82
2023/11/08 02:53:44;;;;;;;;;;;;;;;8.40;68.03;99942.88;1088938;54;1042;-83
2023/11/08 02:54:51;;;;;;;;;;;;;;;8.41;68.06;99941.06;1088981;54;1077;-83
2023/11/08 02:55:52;;;;;;;;;;;;;;;8.35;68.35;99944.25;1088790;54;895;-83
2023/11/08 02:56:56;;;;;;;;;;;;;;;8.25;68.47;99946.88;1088829;47;1058;-83
2023/11/08 02:57:57;;;;;;;;;;;;;;;8.21;68.98;99948.13;1088932;46;986;-82
2023/11/08 02:59:02;;;;;;;;;;;;;;;8.18;68.87;99946.56;1088598;47;1270;-83
2023/11/08 03:00:06;;;;;;;;;;;;;;;8.21;68.88;99943.66;1088467;54;1344;-83
2023/11/08 03:01:08;;;;;;;;;;;;;;;8.23;68.85;99946.16;1088647;54;1033;-83
2023/11/08 03:02:09;;;;;;;;;;;;;;;8.19;68.81;99945.59;1088614;54;1101;-81
2023/11/08 03:03:13;;;;;;;;;;;;;;;8.02;69.51;99938.22;1088520;47;947;-82
2023/11/08 03:04:14;;;;;;;;;;;;;;;8.01;69.57;99934.69;1088404;47;1082;-84
2023/11/08 03:05:20;;;;;;;;;;;;;;;8.15;69.20;99944.16;1088650;54;995;-82
2023/11/08 03:06:25;;;;;;;;;;;;;;;8.14;69.09;99952.28;1088420;47;995;-82
2023/11/08 03:07:27;;;;;;;;;;;;;;;8.10;68.96;99941.88;1088602;47;950;-81
2023/11/08 03:08:33;;;;;;;;;;;;;;;8.15;69.37;99948.66;1088509;47;1091;-82
2023/11/08 03:09:34;;;;;;;;;;;;;;;8.15;68.99;99944.16;1088608;47;979;-82
2023/11/08 03:10:38;;;;;;;;;;;;;;;8.14;69.27;99946.97;1088581;54;1860;-80
2023/11/08 03:11:39;;;;;;;;;;;;;;;8.09;69.48;99950.84;1088514;54;1177;-82
2023/11/08 03:12:40;;;;;;;;;;;;;;;8.15;69.37;99949.47;1088745;54;1075;-81
2023/11/08 03:13:43;;;;;;;;;;;;;;;8.14;69.35;99945.13;1088558;54;1027;-81
2023/11/08 03:14:44;;;;;;;;;;;;;;;8.20;69.05;99957.94;1088535;54;1100;-78
2023/11/08 03:15:45;;;;;;;;;;;;;;;8.18;68.57;99943.03;1088297;54;1006;-78
2023/11/08 03:16:48;;;;;;;;;;;;;;;8.11;68.93;99951.56;1088287;54;1109;-79
2023/11/08 03:17:53;;;;;;;;;;;;;;;8.14;68.78;99958.44;1088309;54;1034;-82
2023/11/08 03:18:57;;;;;;;;;;;;;;;8.14;68.81;99955.78;1088363;47;1238;-80
2023/11/08 03:19:57;;;;;;;;;;;;;;;8.15;68.84;99960.13;1088368;46;1086;-82
2023/11/08 03:21:01;;;;;;;;;;;;;;;8.14;68.74;99953.13;1088491;54;1146;-83
2023/11/08 03:22:02;;;;;;;;;;;;;;;8.13;69.00;99956.75;1088432;47;1011;-80
2023/11/08 03:23:06;;;;;;;;;;;;;;;8.09;69.07;99955.34;1087845;47;1071;-81
2023/11/08 03:24:10;;;;;;;;;;;;;;;7.93;69.54;99966.44;1087968;54;1183;-82
2023/11/08 03:25:16;;;;;;;;;;;;;;;7.95;69.43;99965.34;1088344;54;1107;-81
2023/11/08 03:26:17;;;;;;;;;;;;;;;7.97;69.28;99974.03;1088315;54;1103;-80
2023/11/08 03:27:22;;;;;;;;;;;;;;;7.95;69.32;99968.00;1088095;54;1154;-81
2023/11/08 03:28:23;;;;;;;;;;;;;;;7.96;69.73;99966.19;1088005;47;1055;-80
2023/11/08 03:29:26;;;;;;;;;;;;;;;7.96;69.41;99968.84;1088725;47;1351;-80
2023/11/08 03:30:27;;;;;;;;;;;;;;;7.95;69.54;99978.66;1088850;54;858;-81
2023/11/08 03:31:30;;;;;;;;;;;;;;;7.96;69.53;99975.00;1088327;54;1856;-78
2023/11/08 03:32:33;;;;;;;;;;;;;;;8.04;69.19;99974.38;1087218;54;1122;-78
2023/11/08 03:33:37;;;;;;;;;;;;;;;8.03;69.24;99978.00;1086995;53;1090;-79
2023/11/08 03:34:38;;;;;;;;;;;;;;;7.94;69.55;99982.28;1087094;54;1156;-79
2023/11/08 03:35:41;;;;;;;;;;;;;;;8.01;69.52;99984.44;1087949;54;1157;-79
2023/11/08 03:36:42;;;;;;;;;;;;;;;7.97;69.50;99978.53;1087501;46;1166;-80
2023/11/08 03:37:47;;;;;;;;;;;;;;;7.89;69.82;99980.97;1088342;47;1160;-80
2023/11/08 03:38:50;;;;;;;;;;;;;;;7.83;69.86;99977.03;1088619;47;1420;-81
2023/11/08 03:40:05;;;;;;;;;;;;;;;7.93;69.59;99982.41;1088661;54;1062;-81
2023/11/08 03:41:06;;;;;;;;;;;;;;;7.92;69.50;99976.25;1088180;54;1077;-78
2023/11/08 03:42:10;;;;;;;;;;;;;;;7.88;69.50;99985.47;1087483;54;1189;-81
2023/11/08 03:43:11;;;;;;;;;;;;;;;7.93;69.48;99982.41;1088028;47;1181;-80
2023/11/08 03:44:14;;;;;;;;;;;;;;;7.88;69.50;99979.31;1088549;54;1065;-81
2023/11/08 03:45:15;;;;;;;;;;;;;;;7.96;69.52;99980.34;1088589;54;1075;-81
2023/11/08 03:46:18;;;;;;;;;;;;;;;7.96;69.44;99983.00;1088485;47;1007;-80
2023/11/08 03:47:25;;;;;;;;;;;;;;;8.00;69.20;99982.75;1088610;54;1177;-80
2023/11/08 03:48:29;;;;;;;;;;;;;;;8.08;69.11;99980.28;1088576;54;908;-80
2023/11/08 03:49:34;;;;;;;;;;;;;;;8.02;69.36;99981.63;1088442;54;1377;-81
2023/11/08 03:50:38;;;;;;;;;;;;;;;8.03;69.02;99988.66;1087792;54;1175;-80
2023/11/08 03:51:39;;;;;;;;;;;;;;;7.94;69.25;99987.59;1086479;54;1846;-80
2023/11/08 03:52:42;;;;;;;;;;;;;;;7.98;69.31;99988.22;1086932;47;1156;-79
2023/11/08 03:53:43;;;;;;;;;;;;;;;8.00;69.32;99988.06;1086645;47;1087;-79
2023/11/08 03:54:46;;;;;;;;;;;;;;;8.06;69.19;99983.09;1088024;54;1137;-80
2023/11/08 03:55:50;;;;;;;;;;;;;;;8.00;69.03;99982.75;1088271;54;1097;-80
2023/11/08 03:56:54;;;;;;;;;;;;;;;8.03;69.20;99982.50;1088387;47;1010;-82
2023/11/08 03:57:55;;;;;;;;;;;;;;;7.87;69.68;99989.09;1088085;54;1168;-81
2023/11/08 03:58:58;;;;;;;;;;;;;;;7.97;69.29;99990.00;1088529;54;1265;-81
2023/11/08 03:59:59;;;;;;;;;;;;;;;7.97;69.31;99987.34;1088444;54;974;-79
2023/11/08 04:01:10;;;;;;;;;;;;;;;7.95;69.26;99988.47;1088416;54;1170;-80
2023/11/08 04:02:11;;;;;;;;;;;;;;;8.00;69.38;99985.41;1088097;54;1114;-80
2023/11/08 04:03:14;;;;;;;;;;;;;;;8.02;69.08;99986.97;1088116;54;1131;-80
2023/11/08 04:04:15;;;;;;;;;;;;;;;8.01;69.54;99995.91;1087257;54;1158;-80
2023/11/08 04:05:18;;;;;;;;;;;;;;;8.00;69.63;99994.22;1087459;54;1105;-80
2023/11/08 04:06:19;;;;;;;;;;;;;;;7.90;69.56;99994.19;1088029;54;1074;-80
2023/11/08 04:07:20;;;;;;;;;;;;;;;7.92;69.64;99992.22;1087863;47;1153;-80
2023/11/08 04:08:23;;;;;;;;;;;;;;;7.86;69.78;99997.22;1087609;54;1078;-80
2023/11/08 04:09:24;;;;;;;;;;;;;;;7.88;69.67;100001.44;1087974;54;1345;-80
2023/11/08 04:10:29;;;;;;;;;;;;;;;7.93;69.79;100007.22;1087938;46;1146;-79
2023/11/08 04:11:32;;;;;;;;;;;;;;;7.92;69.48;99994.91;1087794;54;1858;-80
2023/11/08 04:12:35;;;;;;;;;;;;;;;7.95;69.49;99996.44;1087792;47;1016;-80
2023/11/08 04:13:36;;;;;;;;;;;;;;;7.90;69.81;99994.19;1087833;46;1153;-80
2023/11/08 04:14:39;;;;;;;;;;;;;;;7.86;69.79;100002.53;1087909;54;1173;-80
2023/11/08 04:15:40;;;;;;;;;;;;;;;7.87;69.85;100002.41;1087755;54;1477;-80
2023/11/08 04:16:43;;;;;;;;;;;;;;;7.84;69.73;99993.84;1087979;47;1592;-80
2023/11/08 04:17:44;;;;;;;;;;;;;;;7.84;70.05;100005.31;1088268;54;1179;-81
2023/11/08 04:18:47;;;;;;;;;;;;;;;7.76;70.09;100007.78;1088167;54;1225;-83
2023/11/08 04:19:49;;;;;;;;;;;;;;;7.85;69.92;100004.34;1088400;54;1114;-81
2023/11/08 04:20:53;;;;;;;;;;;;;;;7.78;70.20;100012.03;1087767;47;979;-82
2023/11/08 04:21:54;;;;;;;;;;;;;;;7.80;70.22;100011.88;1088173;47;1050;-79
2023/11/08 04:22:57;;;;;;;;;;;;;;;7.79;70.32;100012.84;1088312;54;958;-81
2023/11/08 04:23:58;;;;;;;;;;;;;;;7.84;70.40;100010.63;1088027;54;1066;-79
2023/11/08 04:24:59;;;;;;;;;;;;;;;7.92;69.79;100002.03;1087296;47;1103;-80
2023/11/08 04:26:02;;;;;;;;;;;;;;;7.91;70.00;100006.50;1087220;54;1063;-79
2023/11/08 04:27:06;;;;;;;;;;;;;;;7.95;69.86;100001.78;1086805;47;1164;-78
2023/11/08 04:28:09;;;;;;;;;;;;;;;7.89;70.08;100007.59;1087258;54;928;-79
2023/11/08 04:29:10;;;;;;;;;;;;;;;7.89;69.91;100010.25;1087370;47;1330;-79
2023/11/08 04:30:12;;;;;;;;;;;;;;;7.94;69.97;100014.22;1087222;47;1155;-80
2023/11/08 04:31:16;;;;;;;;;;;;;;;7.99;69.79;100010.34;1087409;47;1868;-79
2023/11/08 04:32:16;;;;;;;;;;;;;;;7.99;69.60;100011.19;1087346;54;1536;-78
2023/11/08 04:33:17;;;;;;;;;;;;;;;7.96;69.91;100008.78;1087301;47;1034;-78
2023/11/08 04:34:20;;;;;;;;;;;;;;;7.88;69.93;100019.25;1087188;46;1080;-78
2023/11/08 04:35:21;;;;;;;;;;;;;;;7.90;69.84;100020.78;1087014;54;1114;-79
2023/11/08 04:36:23;;;;;;;;;;;;;;;7.88;70.40;100012.09;1087148;47;1011;-80
2023/11/08 04:37:26;;;;;;;;;;;;;;;7.93;71.18;100007.22;1087444;54;1079;-81
2023/11/08 04:38:27;;;;;;;;;;;;;;;7.93;71.64;100007.22;1087641;54;1162;-80
2023/11/08 04:39:31;;;;;;;;;;;;;;;7.91;71.94;100003.84;1088416;46;1238;-79
2023/11/08 04:40:32;;;;;;;;;;;;;;;7.82;72.05;100007.28;1088091;54;1056;-81
2023/11/08 04:41:38;;;;;;;;;;;;;;;7.85;72.29;100012.34;1087927;47;1137;-80
2023/11/08 04:42:41;;;;;;;;;;;;;;;7.75;72.31;100014.94;1087506;54;1090;-79
2023/11/08 04:43:45;;;;;;;;;;;;;;;7.78;72.51;100011.16;1087070;54;1105;-80
2023/11/08 04:44:46;;;;;;;;;;;;;;;7.75;73.12;100006.09;1087109;47;1060;-80
2023/11/08 04:45:49;;;;;;;;;;;;;;;7.75;73.12;100006.09;1087396;47;1513;-79
2023/11/08 04:46:50;;;;;;;;;;;;;;;7.74;72.85;100002.59;1087494;54;1233;-79
2023/11/08 04:47:53;;;;;;;;;;;;;;;7.74;73.36;100004.41;1088244;47;1247;-78
2023/11/08 04:49:06;;;;;;;;;;;;;;;7.74;73.94;99999.09;1088185;47;1333;-80
2023/11/08 04:50:11;;;;;;;;;;;;;;;7.67;74.02;100008.53;1088356;54;1248;-81
2023/11/08 04:51:13;;;;;;;;;;;;;;;7.61;73.86;100005.44;1087807;54;1891;-80
2023/11/08 04:52:14;;;;;;;;;;;;;;;7.54;74.29;100009.56;1087709;54;1123;-80
2023/11/08 04:53:18;;;;;;;;;;;;;;;7.62;74.35;100003.59;1087813;54;1175;-79
2023/11/08 04:54:18;;;;;;;;;;;;;;;7.58;74.29;100016.31;1088023;54;1544;-80
2023/11/08 04:55:22;;;;;;;;;;;;;;;7.55;74.50;100005.94;1087979;47;991;-80
2023/11/08 04:56:23;;;;;;;;;;;;;;;7.52;74.74;100011.50;1087991;47;1150;-79
2023/11/08 04:57:27;;;;;;;;;;;;;;;7.59;74.59;100012.69;1088077;54;1090;-80
2023/11/08 04:58:31;;;;;;;;;;;;;;;7.62;74.60;100008.91;1087804;47;992;-78
2023/11/08 04:59:36;;;;;;;;;;;;;;;7.59;74.61;100003.88;1088007;47;1293;-80
2023/11/08 05:00:38;;;;;;;;;;;;;;;7.59;74.75;100007.34;1088272;54;1107;-79
2023/11/08 05:01:42;;;;;;;;;;;;;;;7.60;74.46;100009.06;1087881;54;1181;-80
2023/11/08 05:02:44;;;;;;;;;;;;;;;7.57;74.64;100009.28;1087885;47;1013;-77
2023/11/08 05:03:48;;;;;;;;;;;;;;;7.54;74.73;100008.72;1088010;47;1290;-77
2023/11/08 05:04:50;;;;;;;;;;;;;;;7.59;74.86;100006.53;1088105;46;965;-81
2023/11/08 05:06:00;;;;;;;;;;;;;;;7.52;74.80;100005.31;1087873;54;1166;-79
2023/11/08 05:07:01;;;;;;;;;;;;;;;7.55;74.82;100000.63;1088065;54;979;-81
2023/11/08 05:08:12;;;;;;;;;;;;;;;7.55;74.65;100005.09;1088185;46;897;-81
2023/11/08 05:09:20;;;;;;;;;;;;;;;7.52;75.11;99995.53;1088456;47;1407;-80
2023/11/08 05:10:25;;;;;;;;;;;;;;;7.46;75.29;100004.03;1088481;47;1048;-78
2023/11/08 05:11:28;;;;;;;;;;;;;;;7.52;74.99;100006.19;1088433;54;1857;-82
2023/11/08 05:12:31;;;;;;;;;;;;;;;7.50;75.06;100002.81;1088464;54;1005;-79
2023/11/08 05:13:35;;;;;;;;;;;;;;;7.52;75.24;100014.16;1088152;46;1070;-81
2023/11/08 05:14:38;;;;;;;;;;;;;;;7.53;75.02;100002.56;1088121;47;920;-79
2023/11/08 05:15:39;;;;;;;;;;;;;;;7.55;75.06;100011.25;1088572;47;1124;-80
2023/11/08 05:18:13;;;;;;;;;;;;;;;7.55;75.04;100013.94;1088591;47;982;-80
2023/11/08 05:19:15;;;;;;;;;;;;;;;7.54;74.84;100006.91;1088490;47;1437;-81
2023/11/08 05:20:19;;;;;;;;;;;;;;;7.52;75.18;100011.50;1088284;54;1086;-82
2023/11/08 05:21:29;;;;;;;;;;;;;;;7.54;75.06;100009.56;1088553;54;1029;-79
2023/11/08 05:22:40;;;;;;;;;;;;;;;7.60;74.98;100006.41;1088559;54;1021;-81
2023/11/08 05:23:40;;;;;;;;;;;;;;;7.64;74.90;100005.19;1088419;54;1051;-79
2023/11/08 05:24:44;;;;;;;;;;;;;;;7.65;74.74;100006.84;1088186;54;1186;-82
2023/11/08 05:25:44;;;;;;;;;;;;;;;7.70;74.47;100003.81;1088230;47;1008;-82
2023/11/08 05:26:47;;;;;;;;;;;;;;;7.65;74.65;100011.34;1088309;54;1139;-80
2023/11/08 05:27:52;;;;;;;;;;;;;;;7.59;74.69;100002.03;1088408;54;1496;-78
2023/11/08 05:28:58;;;;;;;;;;;;;;;7.57;74.46;100005.81;1088207;47;1400;-81
2023/11/08 05:30:15;;;;;;;;;;;;;;;7.54;74.72;100004.25;1088404;47;1106;-79
2023/11/08 05:31:19;;;;;;;;;;;;;;;7.55;74.60;100003.28;1088112;54;1142;-83
2023/11/08 05:32:21;;;;;;;;;;;;;;;7.55;74.74;100003.28;1088018;47;1846;-80
2023/11/08 05:33:24;;;;;;;;;;;;;;;7.56;75.09;99996.97;1088132;47;1051;-82
2023/11/08 05:34:29;;;;;;;;;;;;;;;7.61;75.20;99994.78;1087777;47;1119;-80
2023/11/08 05:35:32;;;;;;;;;;;;;;;7.60;74.73;100003.72;1087403;47;1116;-81
2023/11/08 05:36:34;;;;;;;;;;;;;;;7.61;74.95;99999.25;1087811;47;1142;-79
2023/11/08 05:37:37;;;;;;;;;;;;;;;7.60;74.73;100001.06;1087543;47;1070;-81
2023/11/08 05:38:39;;;;;;;;;;;;;;;7.62;74.74;100009.78;1087468;54;1369;-79
2023/11/08 05:39:43;;;;;;;;;;;;;;;7.71;74.54;100009.97;1087612;47;1106;-77
2023/11/08 05:40:44;;;;;;;;;;;;;;;7.62;74.59;100012.44;1087571;47;1467;-79
2023/11/08 05:41:48;;;;;;;;;;;;;;;7.64;74.52;100013.16;1087642;47;1106;-82
2023/11/08 05:42:49;;;;;;;;;;;;;;;7.68;74.39;100020.88;1087535;47;1051;-81
2023/11/08 05:43:52;;;;;;;;;;;;;;;7.67;74.20;100013.84;1087424;54;1160;-80
2023/11/08 05:44:58;;;;;;;;;;;;;;;7.71;74.05;100018.81;1087482;47;1538;-80
2023/11/08 05:46:01;;;;;;;;;;;;;;;7.70;74.28;100011.78;1087411;54;1145;-80
2023/11/08 05:47:02;;;;;;;;;;;;;;;7.70;74.18;100013.63;1087086;47;1120;-81
2023/11/08 05:48:06;;;;;;;;;;;;;;;7.61;74.42;100018.72;1087228;47;1447;-81
2023/11/08 05:49:08;;;;;;;;;;;;;;;7.53;74.58;100013.19;1086720;54;1309;-81
2023/11/08 05:50:12;;;;;;;;;;;;;;;7.64;74.37;100012.31;1087152;47;1079;-81
2023/11/08 05:51:13;;;;;;;;;;;;;;;7.58;74.54;100018.97;1087350;47;1122;-79
2023/11/08 05:52:14;;;;;;;;;;;;;;;7.63;74.50;100019.47;1087614;54;1844;-79
2023/11/08 05:53:19;;;;;;;;;;;;;;;7.71;74.31;100020.63;1087686;47;1030;-79
2023/11/08 05:54:21;;;;;;;;;;;;;;;7.67;74.47;100021.84;1087223;54;1036;-80
2023/11/08 05:55:22;;;;;;;;;;;;;;;7.65;74.45;100025.47;1087208;47;1169;-80
2023/11/08 05:56:26;;;;;;;;;;;;;;;7.70;74.06;100029.59;1087324;54;1166;-81
2023/11/08 05:57:26;;;;;;;;;;;;;;;7.73;74.08;100024.00;1087432;54;1390;-82
2023/11/08 05:58:30;;;;;;;;;;;;;;;7.62;74.41;100020.41;1087460;47;1095;-81
2023/11/08 05:59:31;;;;;;;;;;;;;;;7.61;74.64;100026.72;1087173;47;1277;-82
2023/11/08 06:00:34;;;;;;;;;;;;;;;7.53;74.40;100022.97;1087117;47;1040;-83
2023/11/08 06:01:38;;;;;;;;;;;;;;;7.61;74.49;100032.03;1087588;47;1146;-81
2023/11/08 06:02:38;;;;;;;;;;;;;;;7.62;74.19;100031.06;1087437;54;1116;-81
2023/11/08 06:03:39;;;;;;;;;;;;;;;7.67;74.21;100029.81;1087411;54;1183;-81
2023/11/08 06:04:42;;;;;;;;;;;;;;;7.65;74.22;100027.31;1087550;54;1117;-80
2023/11/08 06:05:43;;;;;;;;;;;;;;;7.65;74.12;100022.81;1087640;54;986;-80
2023/11/08 06:06:48;;;;;;;;;;;;;;;7.62;74.09;100027.53;1087243;54;1095;-82
2023/11/08 06:07:48;;;;;;;;;;;;;;;7.68;74.26;100031.53;1087723;54;1146;-79
2023/11/08 06:08:52;;;;;;;;;;;;;;;7.67;74.24;100041.34;1087399;54;1422;-80
2023/11/08 06:09:53;;;;;;;;;;;;;;;7.59;74.02;100036.63;1087193;47;1076;-79
2023/11/08 06:10:57;;;;;;;;;;;;;;;7.54;74.46;100036.19;1087465;54;1095;-80
2023/11/08 06:11:58;;;;;;;;;;;;;;;7.54;74.37;100048.63;1087852;47;1852;-80
2023/11/08 06:13:02;;;;;;;;;;;;;;;7.60;74.30;100051.63;1087934;54;1142;-83
2023/11/08 06:14:03;;;;;;;;;;;;;;;7.67;74.20;100051.13;1087744;47;892;-80
2023/11/08 06:15:08;;;;;;;;;;;;;;;7.67;74.13;100051.13;1087444;47;1003;-79
2023/11/08 06:16:11;;;;;;;;;;;;;;;7.68;74.61;100056.31;1087591;54;1385;-79
2023/11/08 06:17:14;;;;;;;;;;;;;;;7.71;74.36;100048.06;1087534;47;1000;-79
2023/11/08 06:18:18;;;;;;;;;;;;;;;7.73;74.30;100050.63;1087484;47;979;-80
2023/11/08 06:19:21;;;;;;;;;;;;;;;7.65;74.65;100053.91;1087548;47;1225;-81
2023/11/08 06:20:23;;;;;;;;;;;;;;;7.62;74.58;100052.34;1087478;54;1079;-82
2023/11/08 06:21:26;;;;;;;;;;;;;;;7.61;74.91;100053.31;1087380;47;963;-80
2023/11/08 06:22:26;;;;;;;;;;;;;;;7.61;75.08;100058.63;1087373;54;1125;-81
2023/11/08 06:23:30;;;;;;;;;;;;;;;7.57;75.05;100064.34;1087741;47;1520;-83
2023/11/08 06:24:31;;;;;;;;;;;;;;;7.55;74.97;100064.47;1087557;47;1579;-83
2023/11/08 06:25:34;;;;;;;;;;;;;;;7.61;74.72;100063.09;1088026;47;1118;-83
2023/11/08 06:26:35;;;;;;;;;;;;;;;7.59;74.88;100063.22;1087860;46;982;-81
2023/11/08 06:27:38;;;;;;;;;;;;;;;7.58;75.11;100071.34;1087743;46;1138;-80
2023/11/08 06:28:39;;;;;;;;;;;;;;;7.61;74.78;100069.28;1087772;54;1353;-80
2023/11/08 06:29:42;;;;;;;;;;;;;;;7.67;74.60;100072.41;1087616;54;1133;-80
2023/11/08 06:30:43;;;;;;;;;;;;;;;7.68;74.64;100069.63;1087819;47;1015;-80
2023/11/08 06:31:46;;;;;;;;;;;;;;;7.59;74.86;100073.88;1087754;54;1114;-79
2023/11/08 06:32:49;;;;;;;;;;;;;;;7.58;75.33;100074.84;1087685;54;1032;-80
2023/11/08 06:33:50;;;;;;;;;;;;;;;7.53;75.36;100086.81;1087689;47;1042;-80
2023/11/08 06:34:53;;;;;;;;;;;;;;;7.48;75.34;100074.75;1087611;47;1093;-80
2023/11/08 06:35:54;;;;;;;;;;;;;;;7.46;75.45;100079.34;1087624;54;1467;-80
2023/11/08 06:36:57;;;;;;;;;;;;;;;7.52;75.12;100080.66;1087714;54;1043;-80
2023/11/08 06:37:58;;;;;;;;;;;;;;;7.52;75.34;100080.66;1087730;54;1155;-82
2023/11/08 06:39:01;;;;;;;;;;;;;;;7.54;75.21;100080.53;1087671;54;1294;-80
2023/11/08 06:40:04;;;;;;;;;;;;;;;7.58;74.80;100074.00;1087918;54;1106;-83
2023/11/08 06:41:08;;;;;;;;;;;;;;;7.54;75.40;100076.06;1087746;47;1059;-81
2023/11/08 06:42:08;;;;;;;;;;;;;;;7.49;75.39;100076.44;1087728;54;1174;-82
2023/11/08 06:43:12;;;;;;;;;;;;;;;7.58;75.06;100080.16;1087897;47;1035;-82
2023/11/08 06:44:13;;;;;;;;;;;;;;;7.57;74.90;100077.63;1087859;47;1215;-82
2023/11/08 06:45:17;;;;;;;;;;;;;;;7.55;75.07;100074.25;1087735;47;1079;-82
2023/11/08 06:46:17;;;;;;;;;;;;;;;7.54;75.15;100078.75;1087903;54;1127;-80
2023/11/08 06:47:20;;;;;;;;;;;;;;;7.64;74.93;100084.16;1087911;47;1155;-79
2023/11/08 06:48:25;;;;;;;;;;;;;;;7.55;75.17;100076.91;1087673;54;1107;-80
2023/11/08 06:49:26;;;;;;;;;;;;;;;7.60;74.79;100086.22;1087798;54;1465;-81
2023/11/08 06:50:30;;;;;;;;;;;;;;;7.53;74.88;100077.03;1087696;54;1081;-80
2023/11/08 06:51:32;;;;;;;;;;;;;;;7.54;74.72;100085.84;1087501;47;1122;-78
2023/11/08 06:52:35;;;;;;;;;;;;;;;7.62;74.72;100086.06;1087803;46;1857;-82
2023/11/08 06:53:36;;;;;;;;;;;;;;;7.71;74.45;100085.31;1087869;47;989;-81
2023/11/08 06:54:39;;;;;;;;;;;;;;;7.68;74.89;100090.06;1088017;54;1079;-83
2023/11/08 06:55:40;;;;;;;;;;;;;;;7.68;74.69;100090.91;1088070;47;1178;-81
2023/11/08 06:56:43;;;;;;;;;;;;;;;7.68;74.73;100092.72;1087937;54;1011;-82
2023/11/08 06:57:43;;;;;;;;;;;;;;;7.70;74.78;100088.97;1088001;47;1028;-82
2023/11/08 06:58:47;;;;;;;;;;;;;;;7.70;74.74;100106.75;1087720;47;1399;-81
2023/11/08 06:59:49;;;;;;;;;;;;;;;7.61;74.72;100109.19;1087807;54;1504;-81
2023/11/08 07:00:53;;;;;;;;;;;;;;;7.68;74.74;100095.38;1087828;54;1103;-84
2023/11/08 07:01:54;;;;;;;;;;;;;;;7.61;74.62;100101.22;1088336;54;972;-81
2023/11/08 07:02:57;;;;;;;;;;;;;;;7.64;74.61;100094.78;1088027;54;1540;-80
2023/11/08 07:04:01;;;;;;;;;;;;;;;7.60;74.95;100094.19;1088132;54;1118;-79
2023/11/08 07:05:01;;;;;;;;;;;;;;;7.58;74.83;100100.63;1087801;47;1003;-78
2023/11/08 07:06:04;;;;;;;;;;;;;;;7.60;75.10;100104.84;1087831;47;999;-80
2023/11/08 07:07:10;;;;;;;;;;;;;;;7.65;74.80;100102.63;1088189;54;1138;-79
2023/11/08 07:08:10;;;;;;;;;;;;;;;7.72;74.69;100104.81;1088277;54;998;-81
2023/11/08 07:09:14;;;;;;;;;;;;;;;7.71;74.50;100109.28;1088177;47;1167;-80
2023/11/08 07:10:15;;;;;;;;;;;;;;;7.75;74.84;100107.22;1087838;54;1074;-80
2023/11/08 07:11:17;;;;;;;;;;;;;;;7.76;74.92;100109.75;1087930;54;1130;-79
2023/11/08 07:12:20;;;;;;;;;;;;;;;7.75;74.97;100109.88;1087712;54;1848;-78
2023/11/08 07:13:21;;;;;;;;;;;;;;;7.80;74.88;100110.34;1087897;47;960;-82
2023/11/08 07:14:24;;;;;;;;;;;;;;;7.82;74.61;100113.75;1088005;46;1063;-79
2023/11/08 07:15:26;;;;;;;;;;;;;;;7.87;74.71;100116.03;1088041;54;959;-80
2023/11/08 07:16:30;;;;;;;;;;;;;;;7.85;74.53;100113.47;1088046;54;1080;-80
2023/11/08 07:17:30;;;;;;;;;;;;;;;7.88;74.33;100118.56;1087604;47;983;-80
2023/11/08 07:18:36;;;;;;;;;;;;;;;7.83;74.42;100119.91;1087925;47;1021;-82
2023/11/08 07:19:37;;;;;;;;;;;;;;;7.82;74.36;100119.06;1087671;46;1158;-81
2023/11/08 07:20:41;;;;;;;;;;;;;;;7.74;74.55;100113.53;1087564;54;1154;-83
2023/11/08 07:21:42;;;;;;;;;;;;;;;7.73;74.52;100125.13;1087509;54;1656;-81
2023/11/08 07:22:45;;;;;;;;;;;;;;;7.74;74.79;100119.69;1087070;54;1560;-82
2023/11/08 07:23:46;;;;;;;;;;;;;;;7.79;74.54;100120.13;1087622;54;1015;-80
2023/11/08 07:24:49;;;;;;;;;;;;;;;7.78;74.47;100128.25;1087609;54;1023;-80
2023/11/08 07:25:49;;;;;;;;;;;;;;;7.79;74.60;100124.63;1087743;54;1136;-81
2023/11/08 07:26:53;;;;;;;;;;;;;;;7.75;74.49;100128.50;1087611;54;1087;-80
2023/11/08 07:27:53;;;;;;;;;;;;;;;7.75;74.52;100128.50;1087838;46;998;-80
2023/11/08 07:28:58;;;;;;;;;;;;;;;7.80;74.65;100129.81;1087461;47;1319;-82
2023/11/08 07:29:59;;;;;;;;;;;;;;;7.79;74.71;100129.94;1087501;54;1055;-82
2023/11/08 07:31:04;;;;;;;;;;;;;;;7.79;74.67;100132.63;1087963;47;1126;-81
2023/11/08 07:32:04;;;;;;;;;;;;;;;7.84;74.56;100133.06;1087724;54;1118;-80
2023/11/08 07:33:08;;;;;;;;;;;;;;;7.85;74.79;100134.75;1087082;54;1871;-82
2023/11/08 07:34:11;;;;;;;;;;;;;;;7.80;74.76;100142.28;1087390;47;960;-83
2023/11/08 07:35:15;;;;;;;;;;;;;;;7.78;74.99;100138.91;1087424;54;1024;-82
2023/11/08 07:36:15;;;;;;;;;;;;;;;7.85;74.64;100136.59;1087475;54;1141;-82
2023/11/08 07:37:18;;;;;;;;;;;;;;;7.91;74.69;100134.28;1086908;47;976;-84
2023/11/08 07:38:19;;;;;;;;;;;;;;;7.95;74.57;100138.38;1087014;54;1528;-80
2023/11/08 07:39:23;;;;;;;;;;;;;;;7.93;74.32;100135.00;1087020;47;1470;-80
2023/11/08 07:40:24;;;;;;;;;;;;;;;7.99;74.41;100140.78;1086998;47;1042;-81
2023/11/08 07:41:30;;;;;;;;;;;;;;;8.00;74.36;100134.50;1086983;47;1059;-83
2023/11/08 07:42:32;;;;;;;;;;;;;;;8.06;74.20;100131.31;1087058;54;1033;-82
2023/11/08 07:43:35;;;;;;;;;;;;;;;8.14;74.12;100128.03;1087085;47;1280;-83
2023/11/08 07:44:36;;;;;;;;;;;;;;;8.12;74.07;100134.34;1087110;47;1075;-82
2023/11/08 07:45:39;;;;;;;;;;;;;;;8.19;74.04;100129.34;1087443;46;1288;-84
2023/11/08 07:46:40;;;;;;;;;;;;;;;8.24;73.61;100128.97;1086960;54;1024;-82
2023/11/08 07:47:45;;;;;;;;;;;;;;;8.18;74.03;100132.13;1086991;54;1565;-82
2023/11/08 07:48:46;;;;;;;;;;;;;;;8.21;73.76;100135.41;1086928;54;1407;-81
2023/11/08 07:49:50;;;;;;;;;;;;;;;8.20;73.67;100133.72;1087282;47;1313;-83
2023/11/08 07:51:00;;;;;;;;;;;;;;;8.19;73.71;100133.81;1086883;54;785;-81
2023/11/08 16:26:34;;;;;;;;;;;;;;;11.14;58.44;99766.25;1086090;54;1193;-81
2023/11/08 16:27:34;;;;;;;;;;;;;;;11.08;58.64;99765.03;1088004;47;1537;-81
2023/11/08 16:28:38;;;;;;;;;;;;;;;11.03;58.92;99776.19;1088253;54;1092;-82
2023/11/08 16:29:40;;;;;;;;;;;;;;;11.04;58.77;99775.22;1088384;47;1484;-81
2023/11/08 16:30:43;;;;;;;;;;;;;;;11.05;58.90;99776.84;1088023;47;965;-81
2023/11/08 16:31:44;;;;;;;;;;;;;;;11.01;59.28;99769.31;1087933;47;1344;-81
2023/11/08 16:32:49;;;;;;;;;;;;;;;10.99;59.22;99777.50;1087927;47;1854;-80
2023/11/08 16:33:50;;;;;;;;;;;;;;;10.92;59.08;99777.25;1088126;47;1027;-82
2023/11/08 16:34:53;;;;;;;;;;;;;;;10.92;59.03;99776.44;1087457;47;1245;-81
2023/11/08 16:35:57;;;;;;;;;;;;;;;10.88;59.45;99767.03;1087776;46;1047;-81
2023/11/08 16:37:01;;;;;;;;;;;;;;;10.90;59.59;99767.72;1088075;54;1020;-81
2023/11/08 16:38:15;;;;;;;;;;;;;;;10.85;59.72;99759.31;1087899;54;897;-82
2023/11/08 16:39:21;;;;;;;;;;;;;;;10.78;59.87;99767.13;1087847;54;1303;-81
2023/11/08 16:40:22;;;;;;;;;;;;;;;10.79;60.12;99765.28;1087886;47;1039;-81
2023/11/08 16:41:25;;;;;;;;;;;;;;;10.70;60.33;99762.53;1088051;54;1150;-81
2023/11/08 16:42:30;;;;;;;;;;;;;;;10.70;60.34;99757.19;1087897;54;1047;-82
2023/11/08 16:43:36;;;;;;;;;;;;;;;10.71;60.49;99764.22;1088019;54;955;-82
2023/11/08 16:44:43;;;;;;;;;;;;;;;10.71;60.36;99758.03;1088052;54;943;-81
2023/11/08 16:45:49;;;;;;;;;;;;;;;10.66;60.45;99761.16;1087604;46;963;-81
2023/11/08 16:46:54;;;;;;;;;;;;;;;10.66;60.57;99755.81;1087901;54;1021;-80
2023/11/08 16:47:58;;;;;;;;;;;;;;;10.59;60.65;99754.72;1087887;54;1094;-81
2023/11/08 16:49:31;;;;;;;;;;;;;;;10.56;60.48;99761.22;1087770;54;1351;-81
2023/11/08 16:52:06;;;;;;;;;;;;;;;10.53;60.78;99766.03;1087534;47;984;-81
2023/11/08 16:53:10;;;;;;;;;;;;;;;10.54;60.55;99759.69;1087346;54;1849;-80
2023/11/08 16:54:20;;;;;;;;;;;;;;;10.53;60.92;99766.84;1087126;54;1091;-80
2023/11/08 16:55:21;;;;;;;;;;;;;;;10.52;60.55;99764.34;1087532;54;1087;-81
2023/11/08 16:56:24;;;;;;;;;;;;;;;10.44;60.63;99762.41;1087552;54;1394;-80
2023/11/08 16:57:26;;;;;;;;;;;;;;;10.45;60.77;99772.13;1087662;54;1338;-81
2023/11/08 16:58:37;;;;;;;;;;;;;;;10.42;60.89;99775.94;1087347;54;1078;-82
2023/11/08 16:59:37;;;;;;;;;;;;;;;10.41;60.88;99774.25;1087056;47;1318;-81
2023/11/08 17:00:42;;;;;;;;;;;;;;;10.41;61.13;99773.44;1087067;54;1158;-80
2023/11/08 17:01:43;;;;;;;;;;;;;;;10.37;61.01;99764.88;1087234;47;988;-81